sensor_id;sensor_type;location;lat;lon;timestamp;P1;durP1;ratioP1;P2;durP2;ratioP2
10617;SDS011;5356;43.526;26.534;2023-04-06T00:01:24;6.95;;;5.03;;
10617;SDS011;5356;43.526;26.534;2023-04-06T00:03:50;10.10;;;5.30;;
10617;SDS011;5356;43.526;26.534;2023-04-06T00:06:15;9.32;;;6.10;;
10617;SDS011;5356;43.526;26.534;2023-04-06T00:08:41;14.13;;;6.05;;
10617;SDS011;5356;43.526;26.534;2023-04-06T00:11:08;9.25;;;5.32;;
10617;SDS011;5356;43.526;26.534;2023-04-06T00:13:33;9.20;;;5.05;;
10617;SDS011;5356;43.526;26.534;2023-04-06T00:15:59;11.25;;;6.28;;
10617;SDS011;5356;43.526;26.534;2023-04-06T00:18:24;10.35;;;5.70;;
10617;SDS011;5356;43.526;26.534;2023-04-06T00:20:50;9.13;;;5.55;;
10617;SDS011;5356;43.526;26.534;2023-04-06T00:23:16;8.18;;;5.55;;
10617;SDS011;5356;43.526;26.534;2023-04-06T00:25:41;11.23;;;5.25;;
10617;SDS011;5356;43.526;26.534;2023-04-06T00:28:07;8.82;;;5.45;;
10617;SDS011;5356;43.526;26.534;2023-04-06T00:30:33;11.13;;;6.40;;
10617;SDS011;5356;43.526;26.534;2023-04-06T00:32:58;9.57;;;5.50;;
10617;SDS011;5356;43.526;26.534;2023-04-06T00:35:24;13.90;;;6.40;;
10617;SDS011;5356;43.526;26.534;2023-04-06T00:37:49;8.15;;;5.93;;
10617;SDS011;5356;43.526;26.534;2023-04-06T00:40:15;9.43;;;6.20;;
10617;SDS011;5356;43.526;26.534;2023-04-06T00:42:41;9.90;;;6.60;;
10617;SDS011;5356;43.526;26.534;2023-04-06T00:45:07;10.48;;;6.50;;
10617;SDS011;5356;43.526;26.534;2023-04-06T00:47:33;10.15;;;6.10;;
10617;SDS011;5356;43.526;26.534;2023-04-06T00:50:01;12.32;;;7.07;;
10617;SDS011;5356;43.526;26.534;2023-04-06T00:52:27;9.27;;;6.20;;
10617;SDS011;5356;43.526;26.534;2023-04-06T00:54:52;9.95;;;6.40;;
10617;SDS011;5356;43.526;26.534;2023-04-06T00:57:18;11.43;;;6.05;;
10617;SDS011;5356;43.526;26.534;2023-04-06T00:59:44;10.90;;;6.93;;
10617;SDS011;5356;43.526;26.534;2023-04-06T01:02:10;8.32;;;5.85;;
10617;SDS011;5356;43.526;26.534;2023-04-06T01:04:36;9.75;;;5.65;;
10617;SDS011;5356;43.526;26.534;2023-04-06T01:07:01;12.07;;;5.90;;
10617;SDS011;5356;43.526;26.534;2023-04-06T01:09:27;9.85;;;6.00;;
10617;SDS011;5356;43.526;26.534;2023-04-06T01:11:57;10.50;;;5.75;;
10617;SDS011;5356;43.526;26.534;2023-04-06T01:14:23;11.25;;;6.68;;
10617;SDS011;5356;43.526;26.534;2023-04-06T01:16:50;9.40;;;5.80;;
10617;SDS011;5356;43.526;26.534;2023-04-06T01:19:15;10.45;;;6.00;;
10617;SDS011;5356;43.526;26.534;2023-04-06T01:21:41;8.35;;;5.43;;
10617;SDS011;5356;43.526;26.534;2023-04-06T01:24:07;10.07;;;5.93;;
10617;SDS011;5356;43.526;26.534;2023-04-06T01:26:33;10.93;;;6.68;;
10617;SDS011;5356;43.526;26.534;2023-04-06T01:29:00;11.45;;;6.05;;
10617;SDS011;5356;43.526;26.534;2023-04-06T01:31:26;9.80;;;6.43;;
10617;SDS011;5356;43.526;26.534;2023-04-06T01:33:52;9.90;;;6.40;;
10617;SDS011;5356;43.526;26.534;2023-04-06T01:36:18;8.40;;;5.88;;
10617;SDS011;5356;43.526;26.534;2023-04-06T01:38:43;10.05;;;6.18;;
10617;SDS011;5356;43.526;26.534;2023-04-06T01:41:09;9.40;;;6.25;;
10617;SDS011;5356;43.526;26.534;2023-04-06T01:43:35;10.10;;;6.05;;
10617;SDS011;5356;43.526;26.534;2023-04-06T01:46:01;8.48;;;5.07;;
10617;SDS011;5356;43.526;26.534;2023-04-06T01:48:27;10.82;;;5.82;;
10617;SDS011;5356;43.526;26.534;2023-04-06T01:50:52;9.30;;;6.10;;
10617;SDS011;5356;43.526;26.534;2023-04-06T01:53:18;9.75;;;5.55;;
10617;SDS011;5356;43.526;26.534;2023-04-06T01:55:44;7.88;;;5.38;;
10617;SDS011;5356;43.526;26.534;2023-04-06T01:58:10;8.60;;;5.55;;
10617;SDS011;5356;43.526;26.534;2023-04-06T02:00:36;11.40;;;6.47;;
10617;SDS011;5356;43.526;26.534;2023-04-06T02:03:01;9.63;;;5.97;;
10617;SDS011;5356;43.526;26.534;2023-04-06T02:05:28;8.60;;;5.28;;
10617;SDS011;5356;43.526;26.534;2023-04-06T02:07:55;9.10;;;5.00;;
10617;SDS011;5356;43.526;26.534;2023-04-06T02:10:22;8.70;;;5.65;;
10617;SDS011;5356;43.526;26.534;2023-04-06T02:12:49;9.60;;;5.50;;
10617;SDS011;5356;43.526;26.534;2023-04-06T02:15:15;8.95;;;5.47;;
10617;SDS011;5356;43.526;26.534;2023-04-06T02:17:41;8.68;;;5.25;;
10617;SDS011;5356;43.526;26.534;2023-04-06T02:20:07;8.40;;;5.20;;
10617;SDS011;5356;43.526;26.534;2023-04-06T02:22:34;10.02;;;5.53;;
10617;SDS011;5356;43.526;26.534;2023-04-06T02:25:00;8.88;;;5.63;;
10617;SDS011;5356;43.526;26.534;2023-04-06T02:27:26;8.32;;;5.28;;
10617;SDS011;5356;43.526;26.534;2023-04-06T02:29:51;8.75;;;5.63;;
10617;SDS011;5356;43.526;26.534;2023-04-06T02:32:17;7.53;;;5.05;;
10617;SDS011;5356;43.526;26.534;2023-04-06T02:34:42;8.95;;;5.20;;
10617;SDS011;5356;43.526;26.534;2023-04-06T02:37:08;9.20;;;5.13;;
10617;SDS011;5356;43.526;26.534;2023-04-06T02:39:33;9.57;;;6.25;;
10617;SDS011;5356;43.526;26.534;2023-04-06T02:41:59;8.40;;;5.65;;
10617;SDS011;5356;43.526;26.534;2023-04-06T02:44:25;14.52;;;6.75;;
10617;SDS011;5356;43.526;26.534;2023-04-06T02:46:50;10.75;;;6.63;;
10617;SDS011;5356;43.526;26.534;2023-04-06T02:49:16;10.02;;;5.57;;
10617;SDS011;5356;43.526;26.534;2023-04-06T02:51:41;7.70;;;5.13;;
10617;SDS011;5356;43.526;26.534;2023-04-06T02:54:07;10.65;;;5.38;;
10617;SDS011;5356;43.526;26.534;2023-04-06T02:56:32;10.45;;;6.03;;
10617;SDS011;5356;43.526;26.534;2023-04-06T02:58:57;9.15;;;5.57;;
10617;SDS011;5356;43.526;26.534;2023-04-06T03:01:23;8.98;;;5.00;;
10617;SDS011;5356;43.526;26.534;2023-04-06T03:03:48;9.15;;;5.57;;
10617;SDS011;5356;43.526;26.534;2023-04-06T03:06:14;8.70;;;5.72;;
10617;SDS011;5356;43.526;26.534;2023-04-06T03:08:39;9.13;;;5.38;;
10617;SDS011;5356;43.526;26.534;2023-04-06T03:11:05;13.82;;;6.05;;
10617;SDS011;5356;43.526;26.534;2023-04-06T03:13:30;7.85;;;5.20;;
10617;SDS011;5356;43.526;26.534;2023-04-06T03:15:56;11.52;;;7.22;;
10617;SDS011;5356;43.526;26.534;2023-04-06T03:18:22;11.98;;;6.50;;
10617;SDS011;5356;43.526;26.534;2023-04-06T03:20:49;12.98;;;6.10;;
10617;SDS011;5356;43.526;26.534;2023-04-06T03:23:15;8.95;;;5.68;;
10617;SDS011;5356;43.526;26.534;2023-04-06T03:25:41;11.73;;;7.32;;
10617;SDS011;5356;43.526;26.534;2023-04-06T03:28:06;9.45;;;6.00;;
10617;SDS011;5356;43.526;26.534;2023-04-06T03:30:32;10.63;;;6.22;;
10617;SDS011;5356;43.526;26.534;2023-04-06T03:32:58;10.05;;;6.78;;
10617;SDS011;5356;43.526;26.534;2023-04-06T03:35:24;12.73;;;6.78;;
10617;SDS011;5356;43.526;26.534;2023-04-06T03:37:49;10.57;;;5.38;;
10617;SDS011;5356;43.526;26.534;2023-04-06T03:40:15;8.55;;;5.50;;
10617;SDS011;5356;43.526;26.534;2023-04-06T03:42:41;11.48;;;6.07;;
10617;SDS011;5356;43.526;26.534;2023-04-06T03:45:06;10.73;;;6.32;;
10617;SDS011;5356;43.526;26.534;2023-04-06T03:47:32;12.10;;;7.10;;
10617;SDS011;5356;43.526;26.534;2023-04-06T03:49:58;11.07;;;6.28;;
10617;SDS011;5356;43.526;26.534;2023-04-06T03:52:24;9.82;;;6.15;;
10617;SDS011;5356;43.526;26.534;2023-04-06T03:54:50;10.35;;;6.40;;
10617;SDS011;5356;43.526;26.534;2023-04-06T03:57:15;11.48;;;6.80;;
10617;SDS011;5356;43.526;26.534;2023-04-06T03:59:41;12.82;;;9.23;;
10617;SDS011;5356;43.526;26.534;2023-04-06T04:02:06;12.13;;;7.13;;
10617;SDS011;5356;43.526;26.534;2023-04-06T04:04:32;9.55;;;6.25;;
10617;SDS011;5356;43.526;26.534;2023-04-06T04:06:57;12.02;;;6.38;;
10617;SDS011;5356;43.526;26.534;2023-04-06T04:09:23;13.57;;;8.48;;
10617;SDS011;5356;43.526;26.534;2023-04-06T04:11:48;15.82;;;7.35;;
10617;SDS011;5356;43.526;26.534;2023-04-06T04:14:14;10.35;;;5.95;;
10617;SDS011;5356;43.526;26.534;2023-04-06T04:16:39;9.90;;;5.68;;
10617;SDS011;5356;43.526;26.534;2023-04-06T04:19:06;10.93;;;5.95;;
10617;SDS011;5356;43.526;26.534;2023-04-06T04:21:32;12.50;;;6.50;;
10617;SDS011;5356;43.526;26.534;2023-04-06T04:23:57;9.68;;;6.43;;
10617;SDS011;5356;43.526;26.534;2023-04-06T04:26:23;11.02;;;7.13;;
10617;SDS011;5356;43.526;26.534;2023-04-06T04:28:48;12.02;;;6.53;;
10617;SDS011;5356;43.526;26.534;2023-04-06T04:31:14;9.05;;;5.47;;
10617;SDS011;5356;43.526;26.534;2023-04-06T04:33:40;8.75;;;5.97;;
10617;SDS011;5356;43.526;26.534;2023-04-06T04:36:05;11.27;;;7.35;;
10617;SDS011;5356;43.526;26.534;2023-04-06T04:38:31;11.65;;;7.00;;
10617;SDS011;5356;43.526;26.534;2023-04-06T04:40:57;17.80;;;7.80;;
10617;SDS011;5356;43.526;26.534;2023-04-06T04:43:22;11.68;;;6.60;;
10617;SDS011;5356;43.526;26.534;2023-04-06T04:45:48;10.73;;;6.90;;
10617;SDS011;5356;43.526;26.534;2023-04-06T04:48:13;12.48;;;6.85;;
10617;SDS011;5356;43.526;26.534;2023-04-06T04:50:38;12.32;;;6.93;;
10617;SDS011;5356;43.526;26.534;2023-04-06T04:53:04;12.50;;;6.88;;
10617;SDS011;5356;43.526;26.534;2023-04-06T04:55:32;12.00;;;6.78;;
10617;SDS011;5356;43.526;26.534;2023-04-06T04:57:58;13.73;;;6.95;;
10617;SDS011;5356;43.526;26.534;2023-04-06T05:00:24;12.00;;;7.75;;
10617;SDS011;5356;43.526;26.534;2023-04-06T05:02:49;11.48;;;6.70;;
10617;SDS011;5356;43.526;26.534;2023-04-06T05:05:15;13.70;;;6.90;;
10617;SDS011;5356;43.526;26.534;2023-04-06T05:07:40;16.38;;;7.95;;
10617;SDS011;5356;43.526;26.534;2023-04-06T05:10:06;13.20;;;6.88;;
10617;SDS011;5356;43.526;26.534;2023-04-06T05:12:32;13.48;;;7.03;;
10617;SDS011;5356;43.526;26.534;2023-04-06T05:14:57;15.63;;;8.32;;
10617;SDS011;5356;43.526;26.534;2023-04-06T05:17:23;12.27;;;6.75;;
10617;SDS011;5356;43.526;26.534;2023-04-06T05:19:48;10.32;;;6.57;;
10617;SDS011;5356;43.526;26.534;2023-04-06T05:22:14;13.57;;;6.95;;
10617;SDS011;5356;43.526;26.534;2023-04-06T05:24:42;14.70;;;7.85;;
10617;SDS011;5356;43.526;26.534;2023-04-06T05:27:11;12.55;;;6.97;;
10617;SDS011;5356;43.526;26.534;2023-04-06T05:29:38;11.57;;;7.22;;
10617;SDS011;5356;43.526;26.534;2023-04-06T05:32:05;17.55;;;8.20;;
10617;SDS011;5356;43.526;26.534;2023-04-06T05:34:31;15.27;;;8.00;;
10617;SDS011;5356;43.526;26.534;2023-04-06T05:36:56;11.77;;;6.88;;
10617;SDS011;5356;43.526;26.534;2023-04-06T05:39:22;9.38;;;6.25;;
10617;SDS011;5356;43.526;26.534;2023-04-06T05:41:48;13.82;;;6.85;;
10617;SDS011;5356;43.526;26.534;2023-04-06T05:44:14;12.10;;;7.10;;
10617;SDS011;5356;43.526;26.534;2023-04-06T05:46:40;10.27;;;6.93;;
10617;SDS011;5356;43.526;26.534;2023-04-06T05:49:05;11.35;;;7.25;;
10617;SDS011;5356;43.526;26.534;2023-04-06T05:51:31;11.57;;;6.28;;
10617;SDS011;5356;43.526;26.534;2023-04-06T05:53:56;13.43;;;7.15;;
10617;SDS011;5356;43.526;26.534;2023-04-06T05:56:23;12.68;;;6.80;;
10617;SDS011;5356;43.526;26.534;2023-04-06T05:58:48;15.25;;;7.00;;
10617;SDS011;5356;43.526;26.534;2023-04-06T06:01:14;10.50;;;7.40;;
10617;SDS011;5356;43.526;26.534;2023-04-06T06:03:40;12.40;;;7.68;;
10617;SDS011;5356;43.526;26.534;2023-04-06T06:06:06;14.20;;;7.30;;
10617;SDS011;5356;43.526;26.534;2023-04-06T06:08:31;11.95;;;7.03;;
10617;SDS011;5356;43.526;26.534;2023-04-06T06:10:57;10.60;;;6.72;;
10617;SDS011;5356;43.526;26.534;2023-04-06T06:13:23;12.48;;;7.60;;
10617;SDS011;5356;43.526;26.534;2023-04-06T06:15:49;17.17;;;7.70;;
10617;SDS011;5356;43.526;26.534;2023-04-06T06:18:15;14.75;;;9.05;;
10617;SDS011;5356;43.526;26.534;2023-04-06T06:20:41;19.27;;;10.13;;
10617;SDS011;5356;43.526;26.534;2023-04-06T06:23:06;24.98;;;10.82;;
10617;SDS011;5356;43.526;26.534;2023-04-06T06:25:32;19.70;;;9.07;;
10617;SDS011;5356;43.526;26.534;2023-04-06T06:27:58;17.10;;;8.43;;
10617;SDS011;5356;43.526;26.534;2023-04-06T06:30:24;13.18;;;7.15;;
10617;SDS011;5356;43.526;26.534;2023-04-06T06:32:50;15.65;;;6.40;;
10617;SDS011;5356;43.526;26.534;2023-04-06T06:35:22;30.83;;;10.95;;
10617;SDS011;5356;43.526;26.534;2023-04-06T06:37:48;26.48;;;10.65;;
10617;SDS011;5356;43.526;26.534;2023-04-06T06:40:13;23.63;;;9.07;;
10617;SDS011;5356;43.526;26.534;2023-04-06T06:42:41;31.60;;;11.68;;
10617;SDS011;5356;43.526;26.534;2023-04-06T06:45:12;28.98;;;11.93;;
10617;SDS011;5356;43.526;26.534;2023-04-06T06:47:37;25.95;;;10.13;;
10617;SDS011;5356;43.526;26.534;2023-04-06T06:50:03;11.88;;;7.95;;
10617;SDS011;5356;43.526;26.534;2023-04-06T06:52:29;16.30;;;8.07;;
10617;SDS011;5356;43.526;26.534;2023-04-06T06:54:54;13.07;;;8.45;;
10617;SDS011;5356;43.526;26.534;2023-04-06T06:57:21;12.18;;;7.38;;
10617;SDS011;5356;43.526;26.534;2023-04-06T06:59:46;14.23;;;8.30;;
10617;SDS011;5356;43.526;26.534;2023-04-06T07:02:12;12.57;;;7.00;;
10617;SDS011;5356;43.526;26.534;2023-04-06T07:04:37;13.05;;;7.72;;
10617;SDS011;5356;43.526;26.534;2023-04-06T07:07:03;11.55;;;6.03;;
10617;SDS011;5356;43.526;26.534;2023-04-06T07:09:28;11.90;;;7.15;;
10617;SDS011;5356;43.526;26.534;2023-04-06T07:11:54;14.13;;;7.45;;
10617;SDS011;5356;43.526;26.534;2023-04-06T07:14:21;13.43;;;7.18;;
10617;SDS011;5356;43.526;26.534;2023-04-06T07:16:47;12.60;;;7.90;;
10617;SDS011;5356;43.526;26.534;2023-04-06T07:19:15;15.85;;;7.53;;
10617;SDS011;5356;43.526;26.534;2023-04-06T07:21:40;13.18;;;7.13;;
10617;SDS011;5356;43.526;26.534;2023-04-06T07:24:06;11.82;;;6.90;;
10617;SDS011;5356;43.526;26.534;2023-04-06T07:26:31;12.50;;;6.30;;
10617;SDS011;5356;43.526;26.534;2023-04-06T07:28:57;12.88;;;6.82;;
10617;SDS011;5356;43.526;26.534;2023-04-06T07:31:22;8.98;;;5.97;;
10617;SDS011;5356;43.526;26.534;2023-04-06T07:33:48;10.63;;;6.45;;
10617;SDS011;5356;43.526;26.534;2023-04-06T07:36:15;10.57;;;6.50;;
10617;SDS011;5356;43.526;26.534;2023-04-06T07:38:40;11.30;;;6.57;;
10617;SDS011;5356;43.526;26.534;2023-04-06T07:41:06;15.73;;;7.90;;
10617;SDS011;5356;43.526;26.534;2023-04-06T07:43:31;11.55;;;6.82;;
10617;SDS011;5356;43.526;26.534;2023-04-06T07:45:57;15.68;;;6.25;;
10617;SDS011;5356;43.526;26.534;2023-04-06T07:48:24;11.30;;;6.32;;
10617;SDS011;5356;43.526;26.534;2023-04-06T07:50:50;10.45;;;6.22;;
10617;SDS011;5356;43.526;26.534;2023-04-06T07:53:15;10.23;;;6.15;;
10617;SDS011;5356;43.526;26.534;2023-04-06T07:55:41;8.77;;;5.90;;
10617;SDS011;5356;43.526;26.534;2023-04-06T07:58:06;10.05;;;6.10;;
10617;SDS011;5356;43.526;26.534;2023-04-06T08:00:32;9.38;;;6.75;;
10617;SDS011;5356;43.526;26.534;2023-04-06T08:03:03;11.40;;;6.35;;
10617;SDS011;5356;43.526;26.534;2023-04-06T08:05:29;9.80;;;6.88;;
10617;SDS011;5356;43.526;26.534;2023-04-06T08:07:55;11.55;;;6.78;;
10617;SDS011;5356;43.526;26.534;2023-04-06T08:10:23;13.25;;;5.75;;
10617;SDS011;5356;43.526;26.534;2023-04-06T08:12:49;10.93;;;5.75;;
10617;SDS011;5356;43.526;26.534;2023-04-06T08:15:14;16.23;;;8.48;;
10617;SDS011;5356;43.526;26.534;2023-04-06T08:17:40;10.07;;;6.55;;
10617;SDS011;5356;43.526;26.534;2023-04-06T08:20:06;14.85;;;6.57;;
10617;SDS011;5356;43.526;26.534;2023-04-06T08:22:35;14.93;;;7.72;;
10617;SDS011;5356;43.526;26.534;2023-04-06T08:25:00;18.70;;;6.35;;
10617;SDS011;5356;43.526;26.534;2023-04-06T08:27:26;11.50;;;6.97;;
10617;SDS011;5356;43.526;26.534;2023-04-06T08:29:54;11.48;;;6.35;;
10617;SDS011;5356;43.526;26.534;2023-04-06T08:32:20;13.73;;;7.13;;
10617;SDS011;5356;43.526;26.534;2023-04-06T08:34:46;11.07;;;6.35;;
10617;SDS011;5356;43.526;26.534;2023-04-06T08:37:11;10.98;;;6.78;;
10617;SDS011;5356;43.526;26.534;2023-04-06T08:39:37;12.93;;;7.05;;
10617;SDS011;5356;43.526;26.534;2023-04-06T08:42:03;9.63;;;7.20;;
10617;SDS011;5356;43.526;26.534;2023-04-06T08:44:29;12.65;;;7.55;;
10617;SDS011;5356;43.526;26.534;2023-04-06T08:46:57;11.40;;;6.97;;
10617;SDS011;5356;43.526;26.534;2023-04-06T08:49:37;15.45;;;9.77;;
10617;SDS011;5356;43.526;26.534;2023-04-06T08:52:07;13.50;;;7.10;;
10617;SDS011;5356;43.526;26.534;2023-04-06T08:54:33;14.23;;;8.07;;
10617;SDS011;5356;43.526;26.534;2023-04-06T08:56:59;13.93;;;7.40;;
10617;SDS011;5356;43.526;26.534;2023-04-06T08:59:33;12.20;;;7.47;;
10617;SDS011;5356;43.526;26.534;2023-04-06T09:02:14;13.48;;;7.13;;
10617;SDS011;5356;43.526;26.534;2023-04-06T09:05:16;26.65;;;14.45;;
10617;SDS011;5356;43.526;26.534;2023-04-06T09:18:32;11.18;;;7.85;;
10617;SDS011;5356;43.526;26.534;2023-04-06T09:24:38;10.15;;;6.32;;
10617;SDS011;5356;43.526;26.534;2023-04-06T09:28:11;14.10;;;6.68;;
10617;SDS011;5356;43.526;26.534;2023-04-06T09:33:58;9.85;;;6.95;;
10617;SDS011;5356;43.526;26.534;2023-04-06T09:36:48;11.77;;;8.00;;
10617;SDS011;5356;43.526;26.534;2023-04-06T09:54:07;11.68;;;6.57;;
10617;SDS011;5356;43.526;26.534;2023-04-06T10:00:22;10.68;;;6.25;;
10617;SDS011;5356;43.526;26.534;2023-04-06T10:33:54;8.05;;;5.20;;
10617;SDS011;5356;43.526;26.534;2023-04-06T10:36:58;11.47;;;6.57;;
10617;SDS011;5356;43.526;26.534;2023-04-06T10:47:17;10.77;;;7.13;;
10617;SDS011;5356;43.526;26.534;2023-04-06T11:00:44;8.50;;;6.55;;
10617;SDS011;5356;43.526;26.534;2023-04-06T11:07:22;13.70;;;8.77;;
10617;SDS011;5356;43.526;26.534;2023-04-06T11:17:41;12.65;;;6.72;;
10617;SDS011;5356;43.526;26.534;2023-04-06T11:35:12;11.95;;;6.38;;
10617;SDS011;5356;43.526;26.534;2023-04-06T12:39:15;8.32;;;5.38;;
10617;SDS011;5356;43.526;26.534;2023-04-06T12:48:32;7.65;;;4.38;;
10617;SDS011;5356;43.526;26.534;2023-04-06T12:55:02;9.27;;;4.90;;
10617;SDS011;5356;43.526;26.534;2023-04-06T14:42:06;10.65;;;5.75;;
10617;SDS011;5356;43.526;26.534;2023-04-06T14:52:33;9.00;;;6.05;;
10617;SDS011;5356;43.526;26.534;2023-04-06T14:55:03;10.48;;;6.13;;
10617;SDS011;5356;43.526;26.534;2023-04-06T14:58:12;10.30;;;6.85;;
10617;SDS011;5356;43.526;26.534;2023-04-06T15:04:41;13.57;;;7.57;;
10617;SDS011;5356;43.526;26.534;2023-04-06T15:07:14;11.68;;;6.65;;
10617;SDS011;5356;43.526;26.534;2023-04-06T15:09:43;9.15;;;6.88;;
10617;SDS011;5356;43.526;26.534;2023-04-06T15:13:11;13.50;;;7.40;;
10617;SDS011;5356;43.526;26.534;2023-04-06T15:16:57;10.18;;;6.43;;
10617;SDS011;5356;43.526;26.534;2023-04-06T15:24:06;11.73;;;6.68;;
10617;SDS011;5356;43.526;26.534;2023-04-06T15:47:42;14.50;;;7.53;;
10617;SDS011;5356;43.526;26.534;2023-04-06T16:00:56;17.13;;;9.43;;
10617;SDS011;5356;43.526;26.534;2023-04-06T16:14:56;9.38;;;6.20;;
10617;SDS011;5356;43.526;26.534;2023-04-06T16:35:56;12.63;;;7.38;;
10617;SDS011;5356;43.526;26.534;2023-04-06T16:43:22;23.30;;;13.00;;
10617;SDS011;5356;43.526;26.534;2023-04-06T16:45:56;19.65;;;9.40;;
10617;SDS011;5356;43.526;26.534;2023-04-06T16:59:44;11.45;;;6.93;;
10617;SDS011;5356;43.526;26.534;2023-04-06T17:06:10;8.35;;;5.78;;
10617;SDS011;5356;43.526;26.534;2023-04-06T17:09:35;11.52;;;6.18;;
10617;SDS011;5356;43.526;26.534;2023-04-06T17:12:10;9.70;;;6.45;;
10617;SDS011;5356;43.526;26.534;2023-04-06T17:36:18;11.77;;;8.20;;
10617;SDS011;5356;43.526;26.534;2023-04-06T17:38:49;11.48;;;6.60;;
10617;SDS011;5356;43.526;26.534;2023-04-06T17:41:24;16.45;;;7.95;;
10617;SDS011;5356;43.526;26.534;2023-04-06T17:47:59;28.92;;;13.93;;
10617;SDS011;5356;43.526;26.534;2023-04-06T17:50:28;23.38;;;13.60;;
10617;SDS011;5356;43.526;26.534;2023-04-06T17:52:57;14.80;;;8.68;;
10617;SDS011;5356;43.526;26.534;2023-04-06T17:55:22;12.50;;;8.55;;
10617;SDS011;5356;43.526;26.534;2023-04-06T17:57:48;11.90;;;6.97;;
10617;SDS011;5356;43.526;26.534;2023-04-06T18:00:15;9.43;;;6.10;;
10617;SDS011;5356;43.526;26.534;2023-04-06T18:05:42;13.93;;;7.35;;
10617;SDS011;5356;43.526;26.534;2023-04-06T18:08:34;12.02;;;6.40;;
10617;SDS011;5356;43.526;26.534;2023-04-06T18:11:43;12.88;;;7.70;;
10617;SDS011;5356;43.526;26.534;2023-04-06T18:17:57;12.10;;;7.15;;
10617;SDS011;5356;43.526;26.534;2023-04-06T18:20:56;14.05;;;7.25;;
10617;SDS011;5356;43.526;26.534;2023-04-06T18:23:58;14.05;;;6.80;;
10617;SDS011;5356;43.526;26.534;2023-04-06T18:30:31;10.60;;;5.45;;
10617;SDS011;5356;43.526;26.534;2023-04-06T18:33:45;13.82;;;6.97;;
10617;SDS011;5356;43.526;26.534;2023-04-06T18:37:19;13.05;;;6.22;;
10617;SDS011;5356;43.526;26.534;2023-04-06T18:43:05;7.25;;;4.50;;
10617;SDS011;5356;43.526;26.534;2023-04-06T18:45:44;6.50;;;3.95;;
10617;SDS011;5356;43.526;26.534;2023-04-06T18:51:28;9.00;;;5.10;;
10617;SDS011;5356;43.526;26.534;2023-04-06T18:54:13;11.25;;;4.22;;
10617;SDS011;5356;43.526;26.534;2023-04-06T18:56:49;8.13;;;4.00;;
10617;SDS011;5356;43.526;26.534;2023-04-06T18:59:20;13.50;;;6.22;;
10617;SDS011;5356;43.526;26.534;2023-04-06T19:02:04;16.70;;;9.48;;
10617;SDS011;5356;43.526;26.534;2023-04-06T19:04:56;10.60;;;6.72;;
10617;SDS011;5356;43.526;26.534;2023-04-06T19:07:24;18.77;;;11.40;;
10617;SDS011;5356;43.526;26.534;2023-04-06T19:09:58;11.18;;;6.22;;
10617;SDS011;5356;43.526;26.534;2023-04-06T19:13:22;9.73;;;5.53;;
10617;SDS011;5356;43.526;26.534;2023-04-06T19:21:41;10.90;;;4.28;;
10617;SDS011;5356;43.526;26.534;2023-04-06T19:26:55;9.70;;;4.57;;
10617;SDS011;5356;43.526;26.534;2023-04-06T19:29:37;5.40;;;4.57;;
10617;SDS011;5356;43.526;26.534;2023-04-06T19:32:14;9.23;;;4.70;;
10617;SDS011;5356;43.526;26.534;2023-04-06T19:35:15;11.35;;;6.07;;
10617;SDS011;5356;43.526;26.534;2023-04-06T19:40:56;10.40;;;5.18;;
10617;SDS011;5356;43.526;26.534;2023-04-06T19:43:28;9.18;;;5.18;;
10617;SDS011;5356;43.526;26.534;2023-04-06T19:46:18;12.35;;;5.82;;
10617;SDS011;5356;43.526;26.534;2023-04-06T19:55:11;10.85;;;5.68;;
10617;SDS011;5356;43.526;26.534;2023-04-06T19:58:06;8.23;;;5.00;;
10617;SDS011;5356;43.526;26.534;2023-04-06T20:00:45;9.10;;;4.65;;
10617;SDS011;5356;43.526;26.534;2023-04-06T20:03:26;10.63;;;5.50;;
10617;SDS011;5356;43.526;26.534;2023-04-06T20:06:17;9.07;;;4.95;;
10617;SDS011;5356;43.526;26.534;2023-04-06T20:09:11;11.82;;;4.80;;
10617;SDS011;5356;43.526;26.534;2023-04-06T20:15:20;11.20;;;5.45;;
10617;SDS011;5356;43.526;26.534;2023-04-06T20:21:16;7.50;;;5.15;;
10617;SDS011;5356;43.526;26.534;2023-04-06T20:27:44;8.82;;;4.78;;
10617;SDS011;5356;43.526;26.534;2023-04-06T20:33:34;8.20;;;4.82;;
10617;SDS011;5356;43.526;26.534;2023-04-06T20:36:26;6.85;;;4.05;;
10617;SDS011;5356;43.526;26.534;2023-04-06T20:39:04;9.48;;;5.18;;
10617;SDS011;5356;43.526;26.534;2023-04-06T20:41:44;10.90;;;5.03;;
10617;SDS011;5356;43.526;26.534;2023-04-06T20:44:39;6.93;;;4.65;;
10617;SDS011;5356;43.526;26.534;2023-04-06T20:47:25;8.30;;;4.38;;
10617;SDS011;5356;43.526;26.534;2023-04-06T20:50:08;7.90;;;5.35;;
10617;SDS011;5356;43.526;26.534;2023-04-06T20:52:49;8.27;;;5.00;;
10617;SDS011;5356;43.526;26.534;2023-04-06T20:55:30;7.38;;;4.47;;
10617;SDS011;5356;43.526;26.534;2023-04-06T21:01:45;7.25;;;3.72;;
10617;SDS011;5356;43.526;26.534;2023-04-06T21:04:43;5.82;;;3.50;;
10617;SDS011;5356;43.526;26.534;2023-04-06T21:07:33;7.47;;;4.85;;
10617;SDS011;5356;43.526;26.534;2023-04-06T21:12:50;5.95;;;3.80;;
10617;SDS011;5356;43.526;26.534;2023-04-06T21:15:50;10.02;;;3.95;;
10617;SDS011;5356;43.526;26.534;2023-04-06T21:22:17;6.22;;;3.92;;
10617;SDS011;5356;43.526;26.534;2023-04-06T21:25:25;7.28;;;4.18;;
10617;SDS011;5356;43.526;26.534;2023-04-06T21:27:53;10.30;;;5.55;;
10617;SDS011;5356;43.526;26.534;2023-04-06T21:30:46;6.90;;;4.38;;
10617;SDS011;5356;43.526;26.534;2023-04-06T21:33:40;7.22;;;4.45;;
10617;SDS011;5356;43.526;26.534;2023-04-06T21:36:32;7.47;;;4.25;;
10617;SDS011;5356;43.526;26.534;2023-04-06T21:39:10;6.72;;;4.32;;
10617;SDS011;5356;43.526;26.534;2023-04-06T21:44:53;5.47;;;3.83;;
10617;SDS011;5356;43.526;26.534;2023-04-06T21:47:34;7.93;;;4.57;;
10617;SDS011;5356;43.526;26.534;2023-04-06T21:50:32;7.00;;;4.10;;
10617;SDS011;5356;43.526;26.534;2023-04-06T21:57:48;9.40;;;4.22;;
10617;SDS011;5356;43.526;26.534;2023-04-06T22:03:53;7.07;;;4.20;;
10617;SDS011;5356;43.526;26.534;2023-04-06T22:06:58;8.95;;;4.78;;
10617;SDS011;5356;43.526;26.534;2023-04-06T22:14:09;9.57;;;3.85;;
10617;SDS011;5356;43.526;26.534;2023-04-06T22:20:51;7.68;;;4.50;;
10617;SDS011;5356;43.526;26.534;2023-04-06T22:24:04;6.57;;;3.85;;
10617;SDS011;5356;43.526;26.534;2023-04-06T22:30:18;7.90;;;4.75;;
10617;SDS011;5356;43.526;26.534;2023-04-06T22:37:03;6.50;;;4.80;;
10617;SDS011;5356;43.526;26.534;2023-04-06T22:39:57;6.20;;;4.40;;
10617;SDS011;5356;43.526;26.534;2023-04-06T22:46:48;7.53;;;3.92;;
10617;SDS011;5356;43.526;26.534;2023-04-06T22:53:15;5.22;;;3.88;;
10617;SDS011;5356;43.526;26.534;2023-04-06T23:02:51;6.15;;;4.03;;
10617;SDS011;5356;43.526;26.534;2023-04-06T23:05:35;8.40;;;4.40;;
10617;SDS011;5356;43.526;26.534;2023-04-06T23:18:20;7.03;;;4.05;;
10617;SDS011;5356;43.526;26.534;2023-04-06T23:21:29;7.05;;;4.53;;
10617;SDS011;5356;43.526;26.534;2023-04-06T23:24:21;7.60;;;3.83;;
10617;SDS011;5356;43.526;26.534;2023-04-06T23:34:00;8.32;;;4.05;;
10617;SDS011;5356;43.526;26.534;2023-04-06T23:36:32;6.22;;;4.50;;
10617;SDS011;5356;43.526;26.534;2023-04-06T23:40:18;6.28;;;4.57;;
10617;SDS011;5356;43.526;26.534;2023-04-06T23:48:58;7.72;;;4.68;;
10617;SDS011;5356;43.526;26.534;2023-04-06T23:55:17;6.20;;;5.07;;
10617;SDS011;5356;43.526;26.534;2023-04-06T23:58:35;7.97;;;5.05;;
